sensor_id;sensor_type;location;lat;lon;timestamp;pressure;altitude;pressure_sealevel;temperature;humidity
69957;BME280;57283;54.816;9.482;2023-04-05T00:02:16;102185.75;;;1.84;100.00
69957;BME280;57283;54.816;9.482;2023-04-05T00:04:45;102183.88;;;1.80;100.00
69957;BME280;57283;54.816;9.482;2023-04-05T00:07:18;102183.06;;;1.81;100.00
69957;BME280;57283;54.816;9.482;2023-04-05T00:09:47;102189.75;;;1.76;100.00
69957;BME280;57283;54.816;9.482;2023-04-05T00:12:15;102193.97;;;1.74;100.00
69957;BME280;57283;54.816;9.482;2023-04-05T00:14:45;102187.09;;;1.73;100.00
69957;BME280;57283;54.816;9.482;2023-04-05T00:17:13;102192.94;;;1.67;100.00
69957;BME280;57283;54.816;9.482;2023-04-05T00:19:40;102193.53;;;1.60;100.00
69957;BME280;57283;54.816;9.482;2023-04-05T00:22:10;102191.84;;;1.61;100.00
69957;BME280;57283;54.816;9.482;2023-04-05T00:24:38;102185.03;;;1.63;100.00
69957;BME280;57283;54.816;9.482;2023-04-05T00:27:09;102186.91;;;1.68;100.00
69957;BME280;57283;54.816;9.482;2023-04-05T00:29:36;102187.97;;;1.73;100.00
69957;BME280;57283;54.816;9.482;2023-04-05T00:32:06;102191.41;;;1.74;100.00
69957;BME280;57283;54.816;9.482;2023-04-05T00:34:34;102183.56;;;1.71;100.00
69957;BME280;57283;54.816;9.482;2023-04-05T00:37:02;102182.63;;;1.67;100.00
69957;BME280;57283;54.816;9.482;2023-04-05T00:39:30;102183.41;;;1.65;100.00
69957;BME280;57283;54.816;9.482;2023-04-05T00:41:58;102173.88;;;1.62;100.00
69957;BME280;57283;54.816;9.482;2023-04-05T00:44:26;102179.13;;;1.65;100.00
69957;BME280;57283;54.816;9.482;2023-04-05T00:46:54;102178.91;;;1.59;100.00
69957;BME280;57283;54.816;9.482;2023-04-05T00:49:23;102177.22;;;1.60;100.00
69957;BME280;57283;54.816;9.482;2023-04-05T00:51:51;102177.25;;;1.61;100.00
69957;BME280;57283;54.816;9.482;2023-04-05T00:54:19;102170.22;;;1.56;100.00
69957;BME280;57283;54.816;9.482;2023-04-05T00:56:47;102176.38;;;1.61;100.00
69957;BME280;57283;54.816;9.482;2023-04-05T00:59:18;102174.59;;;1.58;100.00
69957;BME280;57283;54.816;9.482;2023-04-05T01:01:49;102173.72;;;1.58;100.00
69957;BME280;57283;54.816;9.482;2023-04-05T01:04:25;102171.97;;;1.57;100.00
69957;BME280;57283;54.816;9.482;2023-04-05T01:07:01;102165.78;;;1.52;100.00
69957;BME280;57283;54.816;9.482;2023-04-05T01:09:40;102167.47;;;1.51;100.00
69957;BME280;57283;54.816;9.482;2023-04-05T01:12:16;102158.97;;;1.54;100.00
69957;BME280;57283;54.816;9.482;2023-04-05T01:14:46;102137.88;;;1.38;100.00
69957;BME280;57283;54.816;9.482;2023-04-05T01:17:15;102160.56;;;1.49;100.00
69957;BME280;57283;54.816;9.482;2023-04-05T01:19:49;102152.56;;;1.41;100.00
69957;BME280;57283;54.816;9.482;2023-04-05T01:22:51;102158.78;;;1.48;100.00
69957;BME280;57283;54.816;9.482;2023-04-05T01:25:43;102169.97;;;1.48;100.00
69957;BME280;57283;54.816;9.482;2023-04-05T01:31:28;102166.31;;;1.42;100.00
69957;BME280;57283;54.816;9.482;2023-04-05T01:34:07;102055.47;;;0.85;100.00
69957;BME280;57283;54.816;9.482;2023-04-05T01:36:39;102062.16;;;0.80;100.00
69957;BME280;57283;54.816;9.482;2023-04-05T01:39:08;102154.97;;;1.36;100.00
69957;BME280;57283;54.816;9.482;2023-04-05T01:41:38;102154.97;;;1.36;100.00
69957;BME280;57283;54.816;9.482;2023-04-05T01:44:06;102155.72;;;1.32;100.00
69957;BME280;57283;54.816;9.482;2023-04-05T01:46:35;102157.38;;;1.30;100.00
69957;BME280;57283;54.816;9.482;2023-04-05T01:49:03;102154.69;;;1.27;100.00
69957;BME280;57283;54.816;9.482;2023-04-05T01:51:31;102142.41;;;1.20;100.00
69957;BME280;57283;54.816;9.482;2023-04-05T01:53:59;102145.81;;;1.19;100.00
69957;BME280;57283;54.816;9.482;2023-04-05T01:56:26;102143.00;;;1.12;100.00
69957;BME280;57283;54.816;9.482;2023-04-05T01:58:54;102141.91;;;1.05;100.00
69957;BME280;57283;54.816;9.482;2023-04-05T02:01:22;102141.69;;;0.99;100.00
69957;BME280;57283;54.816;9.482;2023-04-05T02:03:51;102122.44;;;0.88;100.00
69957;BME280;57283;54.816;9.482;2023-04-05T04:15:15;102085.38;;;-0.77;100.00
69957;BME280;57283;54.816;9.482;2023-04-05T04:17:43;102099.16;;;-0.75;100.00
69957;BME280;57283;54.816;9.482;2023-04-05T04:20:11;102084.31;;;-0.82;100.00
69957;BME280;57283;54.816;9.482;2023-04-05T04:22:40;102094.81;;;-0.76;100.00
69957;BME280;57283;54.816;9.482;2023-04-05T04:25:09;102052.22;;;-0.93;100.00
69957;BME280;57283;54.816;9.482;2023-04-05T04:27:39;102075.56;;;-0.87;100.00
69957;BME280;57283;54.816;9.482;2023-04-05T04:30:10;102099.00;;;-0.78;100.00
69957;BME280;57283;54.816;9.482;2023-04-05T04:32:40;102084.19;;;-0.85;100.00
69957;BME280;57283;54.816;9.482;2023-04-05T04:40:36;102107.66;;;-0.76;100.00
69957;BME280;57283;54.816;9.482;2023-04-05T04:43:04;102108.47;;;-0.77;100.00
69957;BME280;57283;54.816;9.482;2023-04-05T04:45:31;102056.84;;;-1.05;100.00
69957;BME280;57283;54.816;9.482;2023-04-05T04:47:59;102098.34;;;-0.74;100.00
69957;BME280;57283;54.816;9.482;2023-04-05T04:50:26;102095.91;;;-0.71;100.00
69957;BME280;57283;54.816;9.482;2023-04-05T04:52:52;102098.59;;;-0.67;100.00
69957;BME280;57283;54.816;9.482;2023-04-05T04:55:19;102083.22;;;-0.66;100.00
69957;BME280;57283;54.816;9.482;2023-04-05T05:00:30;102089.16;;;-0.46;100.00
69957;BME280;57283;54.816;9.482;2023-04-05T05:02:57;102092.91;;;-0.38;100.00
69957;BME280;57283;54.816;9.482;2023-04-05T05:05:24;102094.09;;;-0.30;100.00
69957;BME280;57283;54.816;9.482;2023-04-05T05:07:53;102097.84;;;-0.22;100.00
69957;BME280;57283;54.816;9.482;2023-04-05T05:10:21;102073.03;;;-0.21;100.00
69957;BME280;57283;54.816;9.482;2023-04-05T05:12:48;102086.28;;;-0.11;100.00
69957;BME280;57283;54.816;9.482;2023-04-05T05:15:18;102077.13;;;-0.04;100.00
69957;BME280;57283;54.816;9.482;2023-04-05T05:17:47;102073.19;;;0.06;100.00
69957;BME280;57283;54.816;9.482;2023-04-05T05:20:18;102078.03;;;0.20;100.00
69957;BME280;57283;54.816;9.482;2023-04-05T05:22:46;102066.94;;;0.21;100.00
69957;BME280;57283;54.816;9.482;2023-04-05T05:25:14;102069.84;;;0.30;100.00
69957;BME280;57283;54.816;9.482;2023-04-05T05:27:42;102078.81;;;0.42;100.00
69957;BME280;57283;54.816;9.482;2023-04-05T05:30:11;102071.59;;;0.55;100.00
69957;BME280;57283;54.816;9.482;2023-04-05T05:32:39;102035.06;;;0.40;100.00
69957;BME280;57283;54.816;9.482;2023-04-05T05:35:10;102064.81;;;0.57;100.00
69957;BME280;57283;54.816;9.482;2023-04-05T05:37:38;102086.31;;;0.59;100.00
69957;BME280;57283;54.816;9.482;2023-04-05T05:40:06;102076.34;;;0.94;100.00
69957;BME280;57283;54.816;9.482;2023-04-05T05:42:35;102082.22;;;1.15;100.00
69957;BME280;57283;54.816;9.482;2023-04-05T05:45:04;102085.81;;;1.20;100.00
69957;BME280;57283;54.816;9.482;2023-04-05T05:47:32;102071.63;;;1.31;100.00
69957;BME280;57283;54.816;9.482;2023-04-05T05:50:00;102086.28;;;1.61;100.00
69957;BME280;57283;54.816;9.482;2023-04-05T05:52:30;102086.13;;;1.85;100.00
69957;BME280;57283;54.816;9.482;2023-04-05T05:54:58;102035.81;;;1.66;100.00
69957;BME280;57283;54.816;9.482;2023-04-05T05:57:26;102074.97;;;2.13;100.00
69957;BME280;57283;54.816;9.482;2023-04-05T05:59:54;102073.66;;;2.27;100.00
69957;BME280;57283;54.816;9.482;2023-04-05T06:02:21;102077.81;;;1.93;100.00
69957;BME280;57283;54.816;9.482;2023-04-05T06:04:49;102081.13;;;2.18;100.00
69957;BME280;57283;54.816;9.482;2023-04-05T06:07:17;102070.03;;;2.52;100.00
69957;BME280;57283;54.816;9.482;2023-04-05T06:09:46;102040.97;;;2.57;100.00
69957;BME280;57283;54.816;9.482;2023-04-05T06:12:14;102074.00;;;2.70;100.00
69957;BME280;57283;54.816;9.482;2023-04-05T06:14:42;102085.22;;;2.41;100.00
69957;BME280;57283;54.816;9.482;2023-04-05T06:17:10;102081.31;;;2.55;100.00
69957;BME280;57283;54.816;9.482;2023-04-05T06:19:37;102071.53;;;3.08;100.00
69957;BME280;57283;54.816;9.482;2023-04-05T06:22:05;102081.31;;;2.55;100.00
69957;BME280;57283;54.816;9.482;2023-04-05T06:24:33;102084.59;;;2.81;100.00
69957;BME280;57283;54.816;9.482;2023-04-05T06:27:02;102092.94;;;3.04;100.00
69957;BME280;57283;54.816;9.482;2023-04-05T06:29:30;102081.53;;;3.65;100.00
69957;BME280;57283;54.816;9.482;2023-04-05T06:31:58;102068.47;;;3.98;100.00
69957;BME280;57283;54.816;9.482;2023-04-05T06:34:27;102061.00;;;4.11;100.00
69957;BME280;57283;54.816;9.482;2023-04-05T06:36:54;102066.50;;;4.27;100.00
69957;BME280;57283;54.816;9.482;2023-04-05T06:39:22;102068.25;;;4.28;100.00
69957;BME280;57283;54.816;9.482;2023-04-05T06:41:50;102065.31;;;4.54;100.00
69957;BME280;57283;54.816;9.482;2023-04-05T06:44:19;102071.31;;;4.53;100.00
69957;BME280;57283;54.816;9.482;2023-04-05T06:46:47;102060.63;;;4.80;100.00
69957;BME280;57283;54.816;9.482;2023-04-05T06:49:15;102058.47;;;5.05;100.00
69957;BME280;57283;54.816;9.482;2023-04-05T06:51:42;102058.75;;;5.21;100.00
69957;BME280;57283;54.816;9.482;2023-04-05T06:54:10;102055.47;;;4.80;100.00
69957;BME280;57283;54.816;9.482;2023-04-05T06:56:38;102054.84;;;4.95;100.00
69957;BME280;57283;54.816;9.482;2023-04-05T06:59:06;102059.47;;;5.13;100.00
69957;BME280;57283;54.816;9.482;2023-04-05T07:01:35;102064.41;;;4.98;100.00
69957;BME280;57283;54.816;9.482;2023-04-05T07:04:03;102063.59;;;5.03;100.00
69957;BME280;57283;54.816;9.482;2023-04-05T07:06:31;102042.91;;;5.57;100.00
69957;BME280;57283;54.816;9.482;2023-04-05T07:09:00;102053.91;;;6.00;100.00
69957;BME280;57283;54.816;9.482;2023-04-05T07:11:29;102042.03;;;6.17;100.00
69957;BME280;57283;54.816;9.482;2023-04-05T07:13:58;102048.31;;;6.39;100.00
69957;BME280;57283;54.816;9.482;2023-04-05T07:16:26;102030.00;;;6.25;100.00
69957;BME280;57283;54.816;9.482;2023-04-05T07:18:56;102044.91;;;5.77;100.00
69957;BME280;57283;54.816;9.482;2023-04-05T07:21:24;102042.25;;;5.72;100.00
69957;BME280;57283;54.816;9.482;2023-04-05T07:23:52;102022.44;;;6.44;100.00
69957;BME280;57283;54.816;9.482;2023-04-05T07:26:21;102034.09;;;6.88;100.00
69957;BME280;57283;54.816;9.482;2023-04-05T07:28:49;102023.88;;;6.17;100.00
69957;BME280;57283;54.816;9.482;2023-04-05T07:31:17;102040.47;;;6.32;100.00
69957;BME280;57283;54.816;9.482;2023-04-05T07:33:44;102045.03;;;6.52;100.00
69957;BME280;57283;54.816;9.482;2023-04-05T07:36:14;102044.50;;;6.85;100.00
69957;BME280;57283;54.816;9.482;2023-04-05T07:38:41;102041.44;;;7.33;100.00
69957;BME280;57283;54.816;9.482;2023-04-05T07:41:10;102041.75;;;7.84;100.00
69957;BME280;57283;54.816;9.482;2023-04-05T07:43:38;102045.44;;;6.96;100.00
69957;BME280;57283;54.816;9.482;2023-04-05T07:46:05;102048.50;;;5.85;100.00
69957;BME280;57283;54.816;9.482;2023-04-05T07:48:33;102055.09;;;5.65;100.00
69957;BME280;57283;54.816;9.482;2023-04-05T07:51:05;102035.22;;;6.28;100.00
69957;BME280;57283;54.816;9.482;2023-04-05T07:53:36;102049.34;;;7.49;100.00
69957;BME280;57283;54.816;9.482;2023-04-05T07:56:05;102043.38;;;7.66;100.00
69957;BME280;57283;54.816;9.482;2023-04-05T07:58:33;102061.97;;;7.05;100.00
69957;BME280;57283;54.816;9.482;2023-04-05T08:01:02;102065.19;;;6.79;100.00
69957;BME280;57283;54.816;9.482;2023-04-05T08:03:31;102048.66;;;7.79;100.00
69957;BME280;57283;54.816;9.482;2023-04-05T08:06:08;102028.13;;;8.39;100.00
69957;BME280;57283;54.816;9.482;2023-04-05T08:08:38;102042.50;;;7.66;100.00
69957;BME280;57283;54.816;9.482;2023-04-05T08:11:06;102054.38;;;7.29;100.00
69957;BME280;57283;54.816;9.482;2023-04-05T08:13:34;102046.88;;;6.65;100.00
69957;BME280;57283;54.816;9.482;2023-04-05T08:16:04;102041.94;;;8.29;100.00
69957;BME280;57283;54.816;9.482;2023-04-05T08:18:32;102029.94;;;8.65;100.00
69957;BME280;57283;54.816;9.482;2023-04-05T08:21:00;102042.16;;;7.14;100.00
69957;BME280;57283;54.816;9.482;2023-04-05T08:23:28;102040.31;;;8.59;100.00
69957;BME280;57283;54.816;9.482;2023-04-05T08:25:58;102033.38;;;8.47;100.00
69957;BME280;57283;54.816;9.482;2023-04-05T08:28:26;102040.09;;;8.05;100.00
69957;BME280;57283;54.816;9.482;2023-04-05T08:30:54;102033.31;;;8.33;100.00
69957;BME280;57283;54.816;9.482;2023-04-05T08:33:23;102022.91;;;9.83;100.00
69957;BME280;57283;54.816;9.482;2023-04-05T08:35:51;102035.19;;;8.86;100.00
69957;BME280;57283;54.816;9.482;2023-04-05T08:38:19;102023.88;;;9.36;100.00
69957;BME280;57283;54.816;9.482;2023-04-05T08:40:47;102037.69;;;8.37;100.00
69957;BME280;57283;54.816;9.482;2023-04-05T08:43:22;102033.38;;;8.61;100.00
69957;BME280;57283;54.816;9.482;2023-04-05T08:45:52;102026.28;;;10.12;100.00
69957;BME280;57283;54.816;9.482;2023-04-05T08:48:21;102018.09;;;10.77;100.00
69957;BME280;57283;54.816;9.482;2023-04-05T08:50:49;102010.38;;;10.62;100.00
69957;BME280;57283;54.816;9.482;2023-04-05T08:53:18;102024.94;;;10.92;100.00
69957;BME280;57283;54.816;9.482;2023-04-05T08:55:48;102017.34;;;10.59;100.00
69957;BME280;57283;54.816;9.482;2023-04-05T08:58:19;102001.09;;;12.10;100.00
69957;BME280;57283;54.816;9.482;2023-04-05T09:00:48;101993.78;;;14.30;100.00
69957;BME280;57283;54.816;9.482;2023-04-05T09:03:20;101982.72;;;10.26;100.00
69957;BME280;57283;54.816;9.482;2023-04-05T09:05:51;102008.88;;;10.14;100.00
69957;BME280;57283;54.816;9.482;2023-04-05T09:08:19;101996.59;;;11.43;100.00
69957;BME280;57283;54.816;9.482;2023-04-05T09:10:48;102013.34;;;9.77;100.00
69957;BME280;57283;54.816;9.482;2023-04-05T09:13:18;101988.06;;;9.90;100.00
69957;BME280;57283;54.816;9.482;2023-04-05T09:15:47;102004.63;;;9.86;100.00
69957;BME280;57283;54.816;9.482;2023-04-05T09:18:15;102001.47;;;10.89;100.00
69957;BME280;57283;54.816;9.482;2023-04-05T09:20:56;101992.13;;;12.28;100.00
69957;BME280;57283;54.816;9.482;2023-04-05T09:23:24;101985.72;;;12.48;100.00
69957;BME280;57283;54.816;9.482;2023-04-05T09:25:52;101983.91;;;14.01;100.00
69957;BME280;57283;54.816;9.482;2023-04-05T09:28:21;101972.28;;;16.99;96.72
69957;BME280;57283;54.816;9.482;2023-04-05T09:30:49;101976.16;;;13.50;100.00
69957;BME280;57283;54.816;9.482;2023-04-05T09:33:18;101976.25;;;17.37;82.60
69957;BME280;57283;54.816;9.482;2023-04-05T09:35:49;101985.66;;;16.09;85.74
69957;BME280;57283;54.816;9.482;2023-04-05T09:38:17;101972.31;;;15.86;86.32
69957;BME280;57283;54.816;9.482;2023-04-05T09:40:46;101966.97;;;20.62;52.21
69957;BME280;57283;54.816;9.482;2023-04-05T09:43:36;101961.19;;;16.33;68.64
69957;BME280;57283;54.816;9.482;2023-04-05T09:46:05;101905.91;;;15.42;73.76
69957;BME280;57283;54.816;9.482;2023-04-05T09:48:46;101960.63;;;21.01;56.09
69957;BME280;57283;54.816;9.482;2023-04-05T09:51:14;101948.44;;;17.02;60.43
69957;BME280;57283;54.816;9.482;2023-04-05T09:53:58;101961.03;;;19.02;64.86
69957;BME280;57283;54.816;9.482;2023-04-05T09:56:28;101966.56;;;17.37;58.94
69957;BME280;57283;54.816;9.482;2023-04-05T09:59:00;101965.53;;;16.64;67.99
69957;BME280;57283;54.816;9.482;2023-04-05T10:01:29;101953.47;;;19.13;65.34
69957;BME280;57283;54.816;9.482;2023-04-05T10:03:58;101929.28;;;24.93;38.97
69957;BME280;57283;54.816;9.482;2023-04-05T10:06:36;101934.41;;;19.85;49.07
69957;BME280;57283;54.816;9.482;2023-04-05T10:09:05;101903.41;;;22.25;39.00
69957;BME280;57283;54.816;9.482;2023-04-05T10:11:33;101943.38;;;17.70;58.06
69957;BME280;57283;54.816;9.482;2023-04-05T10:14:04;101918.63;;;21.59;44.36
69957;BME280;57283;54.816;9.482;2023-04-05T10:16:36;101929.66;;;17.59;56.73
69957;BME280;57283;54.816;9.482;2023-04-05T10:19:06;101941.44;;;14.58;80.17
69957;BME280;57283;54.816;9.482;2023-04-05T10:21:40;101887.34;;;19.12;57.65
69957;BME280;57283;54.816;9.482;2023-04-05T10:24:17;101911.56;;;20.73;42.17
69957;BME280;57283;54.816;9.482;2023-04-05T10:26:53;101919.28;;;19.87;43.78
69957;BME280;57283;54.816;9.482;2023-04-05T10:29:35;101929.19;;;16.44;53.90
69957;BME280;57283;54.816;9.482;2023-04-05T10:32:10;101916.66;;;20.61;41.65
69957;BME280;57283;54.816;9.482;2023-04-05T10:34:44;101909.03;;;21.39;43.81
69957;BME280;57283;54.816;9.482;2023-04-05T10:37:22;101924.97;;;14.87;51.04
69957;BME280;57283;54.816;9.482;2023-04-05T10:39:54;101932.00;;;14.11;77.58
69957;BME280;57283;54.816;9.482;2023-04-05T10:42:27;101890.38;;;15.93;50.47
69957;BME280;57283;54.816;9.482;2023-04-05T10:45:06;101922.94;;;14.62;63.47
69957;BME280;57283;54.816;9.482;2023-04-05T10:47:41;101923.00;;;13.82;72.22
69957;BME280;57283;54.816;9.482;2023-04-05T10:50:17;101921.97;;;15.00;72.41
69957;BME280;57283;54.816;9.482;2023-04-05T10:52:47;101918.31;;;15.39;56.86
69957;BME280;57283;54.816;9.482;2023-04-05T10:55:15;101918.72;;;14.18;62.86
69957;BME280;57283;54.816;9.482;2023-04-05T10:57:44;101898.06;;;16.29;62.44
69957;BME280;57283;54.816;9.482;2023-04-05T11:00:15;101897.97;;;14.79;49.70
69957;BME280;57283;54.816;9.482;2023-04-05T11:02:44;101903.53;;;14.68;50.95
69957;BME280;57283;54.816;9.482;2023-04-05T11:05:29;101899.03;;;15.98;49.16
69957;BME280;57283;54.816;9.482;2023-04-05T11:08:05;101905.00;;;13.64;59.68
69957;BME280;57283;54.816;9.482;2023-04-05T11:10:35;101886.59;;;15.74;50.51
69957;BME280;57283;54.816;9.482;2023-04-05T11:13:06;101838.91;;;16.10;46.64
69957;BME280;57283;54.816;9.482;2023-04-05T11:15:36;101882.09;;;14.49;49.45
69957;BME280;57283;54.816;9.482;2023-04-05T11:18:06;101873.97;;;17.17;46.61
69957;BME280;57283;54.816;9.482;2023-04-05T11:20:45;101892.69;;;13.68;51.51
69957;BME280;57283;54.816;9.482;2023-04-05T11:23:14;101886.31;;;14.90;48.95
69957;BME280;57283;54.816;9.482;2023-04-05T11:25:49;101872.81;;;16.48;47.47
69957;BME280;57283;54.816;9.482;2023-04-05T11:28:27;101876.03;;;14.80;51.42
69957;BME280;57283;54.816;9.482;2023-04-05T11:30:57;101875.63;;;15.27;54.06
69957;BME280;57283;54.816;9.482;2023-04-05T11:33:53;101866.16;;;14.55;53.22
69957;BME280;57283;54.816;9.482;2023-04-05T11:36:36;101841.50;;;18.91;46.97
69957;BME280;57283;54.816;9.482;2023-04-05T11:39:26;101848.16;;;19.95;40.74
69957;BME280;57283;54.816;9.482;2023-04-05T11:41:57;101876.69;;;15.82;49.01
69957;BME280;57283;54.816;9.482;2023-04-05T11:44:25;101873.38;;;17.57;44.91
69957;BME280;57283;54.816;9.482;2023-04-05T11:46:55;101880.22;;;14.16;48.24
69957;BME280;57283;54.816;9.482;2023-04-05T11:49:24;101871.38;;;15.23;47.69
69957;BME280;57283;54.816;9.482;2023-04-05T11:51:52;101862.91;;;18.23;44.02
69957;BME280;57283;54.816;9.482;2023-04-05T11:54:30;101857.78;;;19.41;42.27
69957;BME280;57283;54.816;9.482;2023-04-05T11:56:58;101874.97;;;15.81;43.77
69957;BME280;57283;54.816;9.482;2023-04-05T11:59:28;101867.75;;;14.61;46.68
69957;BME280;57283;54.816;9.482;2023-04-05T12:02:01;101874.38;;;13.65;53.26
69957;BME280;57283;54.816;9.482;2023-04-05T12:04:31;101873.88;;;13.46;55.89
69957;BME280;57283;54.816;9.482;2023-04-05T12:07:13;101856.28;;;16.43;45.41
69957;BME280;57283;54.816;9.482;2023-04-05T12:10:00;101854.28;;;15.07;46.47
69957;BME280;57283;54.816;9.482;2023-04-05T12:12:32;101852.94;;;16.91;50.17
69957;BME280;57283;54.816;9.482;2023-04-05T12:15:01;101837.75;;;18.55;43.83
69957;BME280;57283;54.816;9.482;2023-04-05T12:17:44;101857.66;;;17.06;42.95
69957;BME280;57283;54.816;9.482;2023-04-05T12:20:14;101850.19;;;15.26;43.49
69957;BME280;57283;54.816;9.482;2023-04-05T12:22:43;101834.59;;;16.09;43.93
69957;BME280;57283;54.816;9.482;2023-04-05T12:25:13;101841.59;;;15.21;44.69
69957;BME280;57283;54.816;9.482;2023-04-05T12:27:42;101842.47;;;17.36;46.57
69957;BME280;57283;54.816;9.482;2023-04-05T12:30:12;101840.53;;;15.27;43.69
69957;BME280;57283;54.816;9.482;2023-04-05T12:32:46;101837.38;;;14.49;44.54
69957;BME280;57283;54.816;9.482;2023-04-05T12:35:16;101841.03;;;16.53;42.88
69957;BME280;57283;54.816;9.482;2023-04-05T12:37:44;101836.78;;;15.35;42.61
69957;BME280;57283;54.816;9.482;2023-04-05T12:40:13;101853.72;;;13.89;49.57
69957;BME280;57283;54.816;9.482;2023-04-05T12:42:41;101833.91;;;15.14;46.28
69957;BME280;57283;54.816;9.482;2023-04-05T12:45:12;101830.09;;;15.84;45.33
69957;BME280;57283;54.816;9.482;2023-04-05T12:47:49;101789.13;;;17.03;39.98
69957;BME280;57283;54.816;9.482;2023-04-05T12:50:18;101825.47;;;17.66;40.64
69957;BME280;57283;54.816;9.482;2023-04-05T12:52:53;101834.34;;;15.88;42.20
69957;BME280;57283;54.816;9.482;2023-04-05T12:55:21;101829.50;;;15.44;46.06
69957;BME280;57283;54.816;9.482;2023-04-05T12:57:51;101828.09;;;14.35;50.64
69957;BME280;57283;54.816;9.482;2023-04-05T13:00:20;101811.59;;;17.60;42.07
69957;BME280;57283;54.816;9.482;2023-04-05T13:02:52;101815.41;;;17.98;40.92
69957;BME280;57283;54.816;9.482;2023-04-05T13:05:21;101819.06;;;14.79;42.41
69957;BME280;57283;54.816;9.482;2023-04-05T13:07:49;101815.34;;;14.55;41.22
69957;BME280;57283;54.816;9.482;2023-04-05T13:10:18;101812.72;;;15.48;43.37
69957;BME280;57283;54.816;9.482;2023-04-05T13:12:46;101806.13;;;17.19;41.05
69957;BME280;57283;54.816;9.482;2023-04-05T13:15:15;101807.91;;;15.03;44.22
69957;BME280;57283;54.816;9.482;2023-04-05T13:17:44;101820.41;;;13.51;49.63
69957;BME280;57283;54.816;9.482;2023-04-05T13:20:17;101808.16;;;13.52;51.62
69957;BME280;57283;54.816;9.482;2023-04-05T13:22:45;101811.13;;;14.82;46.08
69957;BME280;57283;54.816;9.482;2023-04-05T13:25:14;101791.31;;;15.60;45.75
69957;BME280;57283;54.816;9.482;2023-04-05T13:27:42;101798.81;;;15.43;44.30
69957;BME280;57283;54.816;9.482;2023-04-05T13:30:10;101807.75;;;15.39;49.67
69957;BME280;57283;54.816;9.482;2023-04-05T13:32:38;101809.66;;;14.01;47.21
69957;BME280;57283;54.816;9.482;2023-04-05T13:35:07;101812.63;;;15.21;44.68
69957;BME280;57283;54.816;9.482;2023-04-05T13:37:37;101800.09;;;15.29;44.37
69957;BME280;57283;54.816;9.482;2023-04-05T13:40:06;101796.28;;;16.25;45.85
69957;BME280;57283;54.816;9.482;2023-04-05T13:42:34;101805.75;;;12.97;54.28
69957;BME280;57283;54.816;9.482;2023-04-05T13:45:02;101796.00;;;14.22;47.83
69957;BME280;57283;54.816;9.482;2023-04-05T13:47:30;101791.50;;;14.61;46.21
69957;BME280;57283;54.816;9.482;2023-04-05T13:49:58;101791.94;;;12.41;62.87
69957;BME280;57283;54.816;9.482;2023-04-05T13:52:26;101801.34;;;13.00;56.64
69957;BME280;57283;54.816;9.482;2023-04-05T13:54:55;101788.75;;;14.65;46.33
69957;BME280;57283;54.816;9.482;2023-04-05T13:57:29;101789.66;;;12.72;49.67
69957;BME280;57283;54.816;9.482;2023-04-05T13:59:57;101775.72;;;13.54;46.40
69957;BME280;57283;54.816;9.482;2023-04-05T14:02:25;101783.16;;;13.36;52.81
69957;BME280;57283;54.816;9.482;2023-04-05T14:04:53;101783.69;;;12.64;60.01
69957;BME280;57283;54.816;9.482;2023-04-05T14:07:22;101784.03;;;11.92;59.72
69957;BME280;57283;54.816;9.482;2023-04-05T14:09:50;101774.88;;;15.22;50.65
69957;BME280;57283;54.816;9.482;2023-04-05T14:12:19;101771.59;;;13.81;49.35
69957;BME280;57283;54.816;9.482;2023-04-05T14:14:47;101779.25;;;12.67;53.87
69957;BME280;57283;54.816;9.482;2023-04-05T14:17:15;101770.81;;;12.96;57.76
69957;BME280;57283;54.816;9.482;2023-04-05T14:19:43;101762.25;;;14.07;52.51
69957;BME280;57283;54.816;9.482;2023-04-05T14:22:11;101764.31;;;13.57;52.93
69957;BME280;57283;54.816;9.482;2023-04-05T14:24:39;101741.88;;;13.79;48.31
69957;BME280;57283;54.816;9.482;2023-04-05T14:27:07;101754.16;;;14.48;52.63
69957;BME280;57283;54.816;9.482;2023-04-05T14:29:37;101753.59;;;14.02;47.16
69957;BME280;57283;54.816;9.482;2023-04-05T14:32:05;101757.09;;;13.65;49.48
69957;BME280;57283;54.816;9.482;2023-04-05T14:34:33;101686.38;;;13.22;51.13
69957;BME280;57283;54.816;9.482;2023-04-05T14:37:02;101759.84;;;13.20;50.69
69957;BME280;57283;54.816;9.482;2023-04-05T14:39:32;101752.03;;;12.25;58.72
69957;BME280;57283;54.816;9.482;2023-04-05T14:42:00;101750.03;;;12.87;54.91
69957;BME280;57283;54.816;9.482;2023-04-05T14:44:28;101744.19;;;13.91;51.34
69957;BME280;57283;54.816;9.482;2023-04-05T14:46:58;101751.81;;;11.27;60.21
69957;BME280;57283;54.816;9.482;2023-04-05T14:49:26;101703.13;;;11.75;62.74
69957;BME280;57283;54.816;9.482;2023-04-05T14:51:54;101748.53;;;11.72;54.25
69957;BME280;57283;54.816;9.482;2023-04-05T14:54:22;101740.91;;;12.14;54.96
69957;BME280;57283;54.816;9.482;2023-04-05T14:56:50;101739.19;;;11.56;51.08
69957;BME280;57283;54.816;9.482;2023-04-05T14:59:18;101737.47;;;11.55;52.92
69957;BME280;57283;54.816;9.482;2023-04-05T15:01:46;101729.94;;;11.32;57.35
69957;BME280;57283;54.816;9.482;2023-04-05T15:04:15;101730.91;;;11.24;60.39
69957;BME280;57283;54.816;9.482;2023-04-05T15:06:43;101726.94;;;12.13;54.25
69957;BME280;57283;54.816;9.482;2023-04-05T15:09:11;101722.19;;;11.25;51.65
69957;BME280;57283;54.816;9.482;2023-04-05T15:11:40;101728.13;;;11.37;55.19
69957;BME280;57283;54.816;9.482;2023-04-05T15:14:08;101716.16;;;11.21;58.90
69957;BME280;57283;54.816;9.482;2023-04-05T15:16:54;101729.00;;;10.70;65.76
69957;BME280;57283;54.816;9.482;2023-04-05T15:19:23;101730.00;;;10.57;63.25
69957;BME280;57283;54.816;9.482;2023-04-05T15:21:51;101725.22;;;10.07;75.50
69957;BME280;57283;54.816;9.482;2023-04-05T15:24:19;101726.50;;;10.57;73.63